Bonnie, Utah
Current Conditions -  °F | °C
As of 2:55 AM on Sunday 23 Nov 2014 (Local Time) from KPVU Reporting Station
Scattered Clouds Scattered Clouds  
Wind Chill: 32°   Ceiling: Unl
Heat Index: 36°   Visibility: 10mi
Dew Point: 27°   Wind: 5mph
Humidity: 70%   Direction: 340°NNW
Pressure: 30.02"   Gusts: NA
Location:  40.2724°N, 111.717°W
Report Text: KPVU 230955Z 34004KT 10SM FEW048 SCT060 02/M03 A3002 RMK AO1
Loading
Personal Weather Stations






























Interactive Weather Map New forecast layout! Learn more

10-Day Weather Forecast

Advertisements
Track Severe Weather on mobile